KJAN/JAN METAR and TAF weather

Enter ICAO airport designator
Station Type Date Time Source
KJAN METAR 2019/04/18 22:54 UTC NOAA

KJAN 182254Z 11006KT 2SM +RA BR FEW011 SCT050 OVC090 16/15 A2964 RMK AO2 LTG DSNT E TSE45 SLP035 TS MOV NE P0027 T01610150


Station Type Date Time Source
KJAN Decoded METAR 2019/04/18 22:54 UTC NOAA

Jackson, Jackson International Airport, MS, United States (KJAN) 32-19-11N 090-04-39W 89M
Apr 18, 2019 - 06:54 PM EDT / 2019.04.18 2254 UTC
Wind: from the ESE (110 degrees) at 7 MPH (6 KT):0
Visibility: 2 mile(s):0
Sky conditions: overcast
Weather: heavy rain; mist; Lightning observed
Precipitation last hour: 0.27 inches
Temperature: 61.0 F (16.1 C)
Dew Point: 59.0 F (15.0 C)
Relative Humidity: 93%
Pressure (altimeter): 29.64 in. Hg (1003 hPa)
ob: KJAN 182254Z 11006KT 2SM +RA BR FEW011 SCT050 OVC090 16/15 A2964 RMK AO2 LTG DSNT E TSE45 SLP035 TS MOV NE P0027 T01610150
cycle: 23

Station Type Date Time Source
KJAN TAF 2019/04/18 18:46 UTC NOAA

TAF KJAN 181743Z 1818/1918 17014G20KT P6SM BKN035
FM181900 15021G28KT P6SM VCTS BKN035 OVC040CB
TEMPO 1820/1823 16030G45KT 1SM +TSRA
FM182300 18023G28KT 5SM SHRA OVC025
FM190200 31015G22KT P6SM VCSH OVC015
FM190800 33015G22KT P6SM OVC015
FM191200 32016G22KT P6SM OVC025

Example: see airport list